Time;durP1;ratioP1;P1;durP2;ratioP2;P2;SDS_P1;SDS_P2;PMS_P1;PMS_P2;Temp;Humidity;BMP_temperature;BMP_pressure;BME280_temperature;BME280_humidity;BME280_pressure;Samples;Min_cycle;Max_cycle;Signal;HPM_P1;HPM_P2
2022/07/06 00:03:06;;;;;;;3.80;1.35;;;;;;;16.11;54.58;96582.66;10373195;28;97014;-75
2022/07/06 00:08:09;;;;;;;1.52;0.82;;;;;;;16.09;55.27;96591.75;10366559;28;96733;-75
2022/07/06 00:13:12;;;;;;;2.33;0.82;;;;;;;15.97;55.63;96578.97;10368511;28;98745;-75
2022/07/06 00:18:17;;;;;;;2.38;0.80;;;;;;;15.97;55.83;96593.97;10370895;28;96896;-75
2022/07/06 00:23:20;;;;;;;5.97;1.20;;;;;;;15.78;56.23;96582.03;10372391;28;97158;-75
2022/07/06 00:28:23;;;;;;;1.80;0.93;;;;;;;15.58;55.74;96586.84;10371404;28;98002;-75
2022/07/06 00:33:29;;;;;;;2.37;1.10;;;;;;;15.45;55.99;96592.66;10371458;28;97779;-75
2022/07/06 00:38:33;;;;;;;1.50;0.80;;;;;;;15.42;55.80;96593.00;10363215;28;97318;-74
2022/07/06 00:43:51;;;;;;;1.30;0.80;;;;;;;15.31;56.85;96602.06;10374699;28;97780;-75
2022/07/06 00:48:57;;;;;;;2.00;0.90;;;;;;;15.15;57.56;96613.47;10365797;28;96926;-75
2022/07/06 00:54:03;;;;;;;1.65;0.93;;;;;;;15.08;57.53;96610.66;10371901;28;98618;-75
2022/07/06 00:59:06;;;;;;;1.55;1.05;;;;;;;14.89;58.30;96616.28;10371008;28;98744;-75
2022/07/06 01:04:11;;;;;;;1.83;1.00;;;;;;;14.64;59.26;96604.94;10378025;28;96837;-75
2022/07/06 01:09:14;;;;;;;1.70;1.10;;;;;;;14.59;59.06;96594.91;10377048;28;96860;-74
2022/07/06 01:14:17;;;;;;;3.42;1.00;;;;;;;14.60;58.43;96586.03;10350945;28;96870;-74
2022/07/06 01:19:22;;;;;;;3.30;1.25;;;;;;;14.65;59.32;96586.38;10337277;28;98356;-74
2022/07/06 01:24:27;;;;;;;1.42;0.90;;;;;;;14.68;59.39;96585.19;10336551;28;96883;-74
2022/07/06 01:29:30;;;;;;;;;;;;;;;14.45;58.75;96575.34;10335942;28;98945;-74
2022/07/06 01:34:33;;;;;;;3.00;0.93;;;;;;;14.32;59.77;96567.13;10335989;28;96915;-75
2022/07/06 01:39:37;;;;;;;0.95;0.90;;;;;;;14.18;60.65;96565.94;10335283;28;98061;-74
2022/07/06 01:44:40;;;;;;;2.28;0.73;;;;;;;14.19;59.60;96563.16;10338040;28;97907;-75
2022/07/06 01:49:43;;;;;;;1.33;0.90;;;;;;;14.21;59.38;96564.78;10334913;28;98615;-74
2022/07/06 01:54:47;;;;;;;0.90;0.60;;;;;;;14.20;59.28;96558.72;10335750;28;97076;-74
2022/07/06 01:59:50;;;;;;;1.67;0.90;;;;;;;14.14;59.92;96559.34;10327599;28;96966;-75
2022/07/06 02:04:53;;;;;;;1.05;0.80;;;;;;;14.14;59.84;96556.72;10330157;28;96896;-74
2022/07/06 02:09:57;;;;;;;1.55;0.82;;;;;;;14.08;60.25;96557.38;10334363;28;96764;-74
2022/07/06 02:15:00;;;;;;;1.67;0.97;;;;;;;13.89;61.24;96561.94;10369987;28;97021;-74
2022/07/06 02:20:04;;;;;;;2.95;0.95;;;;;;;13.79;61.18;96556.00;10375810;28;96833;-74
2022/07/06 02:25:09;;;;;;;4.20;1.27;;;;;;;13.78;62.14;96559.63;10375813;28;96764;-74
2022/07/06 02:30:12;;;;;;;;;;;;;;;13.63;61.19;96554.97;10384348;28;96995;-74
2022/07/06 02:35:15;;;;;;;0.98;0.88;;;;;;;13.53;62.17;96567.38;10372454;28;96831;-74
2022/07/06 02:40:19;;;;;;;3.63;1.10;;;;;;;13.38;63.36;96564.56;10366993;28;96786;-75
2022/07/06 02:45:22;;;;;;;2.23;1.17;;;;;;;13.35;63.16;96571.91;10374502;28;97271;-75
2022/07/06 02:50:26;;;;;;;1.52;1.00;;;;;;;13.32;63.41;96574.84;10377104;28;96821;-75
2022/07/06 02:55:33;;;;;;;2.95;1.30;;;;;;;13.19;63.76;96581.34;10367772;28;96744;-74
2022/07/06 03:00:38;;;;;;;1.77;0.90;;;;;;;13.13;64.74;96581.97;10375618;28;96769;-75
2022/07/06 03:05:41;;;;;;;1.90;1.23;;;;;;;13.09;64.04;96590.31;10362862;28;96726;-74
2022/07/06 03:10:45;;;;;;;2.13;0.80;;;;;;;12.96;64.61;96593.31;10362400;28;97079;-75
2022/07/06 03:15:48;;;;;;;3.57;1.07;;;;;;;12.99;63.28;96595.66;10373303;28;96780;-74
2022/07/06 03:20:51;;;;;;;2.53;1.15;;;;;;;13.05;63.51;96600.28;10374167;28;96792;-74
2022/07/06 03:25:55;;;;;;;1.75;0.98;;;;;;;13.03;64.57;96592.56;10366867;28;97083;-74
2022/07/06 03:30:58;;;;;;;3.13;1.20;;;;;;;12.93;65.08;96597.09;10374383;28;96777;-74
2022/07/06 03:36:01;;;;;;;2.78;1.00;;;;;;;12.83;65.35;96596.34;10373945;28;96960;-74
2022/07/06 03:41:05;;;;;;;2.05;0.93;;;;;;;12.64;65.64;96595.53;10372562;28;97031;-74
2022/07/06 03:46:08;;;;;;;1.37;1.00;;;;;;;12.66;65.42;96605.88;10373668;28;96773;-74
2022/07/06 03:51:11;;;;;;;3.30;0.98;;;;;;;12.66;64.62;96611.91;10373160;28;97843;-74
2022/07/06 03:56:32;;;;;;;3.00;1.10;;;;;;;12.54;65.84;96613.13;10373191;28;96824;-75
2022/07/06 04:01:35;;;;;;;1.40;1.05;;;;;;;12.43;65.74;96627.28;10373013;28;97349;-75
2022/07/06 04:06:39;;;;;;;1.95;1.00;;;;;;;12.39;66.15;96631.19;10372444;28;98004;-74
2022/07/06 04:11:43;;;;;;;3.22;1.05;;;;;;;12.28;66.52;96634.03;10372615;28;96913;-74
2022/07/06 04:16:46;;;;;;;1.87;1.03;;;;;;;12.31;66.05;96633.72;10373659;28;97091;-74
2022/07/06 04:21:49;;;;;;;2.53;1.10;;;;;;;12.48;65.54;96630.28;10371632;28;97120;-75
2022/07/06 04:26:53;;;;;;;1.02;0.90;;;;;;;12.62;64.84;96622.88;10372609;28;96877;-74
2022/07/06 04:31:56;;;;;;;2.23;0.90;;;;;;;12.72;64.10;96631.50;10371286;28;97273;-75
2022/07/06 04:36:59;;;;;;;1.52;1.00;;;;;;;12.80;64.22;96626.28;10370753;28;97308;-75
2022/07/06 04:42:04;;;;;;;2.05;1.20;;;;;;;12.87;64.38;96623.88;10372407;28;96878;-74
2022/07/06 04:47:07;;;;;;;2.63;1.17;;;;;;;13.00;64.59;96621.72;10371884;28;97050;-74
2022/07/06 04:52:10;;;;;;;2.38;0.90;;;;;;;13.15;64.14;96624.63;10371221;28;96796;-75
2022/07/06 04:57:14;;;;;;;4.22;1.00;;;;;;;13.24;63.68;96615.00;10371899;28;97872;-75
2022/07/06 05:02:19;;;;;;;3.47;1.20;;;;;;;13.42;63.73;96617.56;10371445;28;97379;-75
2022/07/06 05:07:22;;;;;;;4.03;1.05;;;;;;;13.64;63.31;96613.56;10371504;28;96959;-75
2022/07/06 05:12:27;;;;;;;2.97;1.08;;;;;;;13.90;63.49;96604.81;10359125;28;96933;-75
2022/07/06 05:17:29;;;;;;;2.40;0.80;;;;;;;14.08;61.55;96602.84;10317702;28;97160;-75
2022/07/06 05:22:32;;;;;;;1.80;0.80;;;;;;;14.16;60.85;96594.19;10328610;28;96862;-75
2022/07/06 05:27:36;;;;;;;1.67;1.00;;;;;;;14.21;60.54;96591.06;10325349;28;96885;-75
2022/07/06 05:32:39;;;;;;;1.97;1.20;;;;;;;14.45;61.55;96588.47;10329005;28;97341;-75
2022/07/06 05:37:42;;;;;;;1.40;1.00;;;;;;;14.64;61.70;96586.53;10329144;28;97107;-75
2022/07/06 05:42:47;;;;;;;1.75;0.80;;;;;;;14.93;61.34;96596.53;10328896;28;96782;-75
2022/07/06 05:53:10;;;;;;;3.08;1.17;;;;;;;15.41;60.37;96594.81;10334192;28;96905;-75
2022/07/06 05:58:24;;;;;;;1.48;1.02;;;;;;;15.49;59.46;96597.41;10338597;28;96924;-75
2022/07/06 06:03:28;;;;;;;1.70;1.15;;;;;;;15.59;59.62;96601.69;10324768;28;98123;-75
2022/07/06 06:08:31;;;;;;;2.35;1.00;;;;;;;15.67;59.47;96604.31;10311780;28;96756;-75
2022/07/06 06:13:35;;;;;;;1.70;1.23;;;;;;;15.87;59.31;96604.69;10352763;28;96956;-75
2022/07/06 06:18:38;;;;;;;4.25;1.17;;;;;;;16.17;58.90;96603.06;10376572;28;96816;-75
2022/07/06 06:23:44;;;;;;;2.90;1.05;;;;;;;16.38;57.77;96613.00;10376125;28;96776;-75
2022/07/06 06:28:49;;;;;;;2.33;1.20;;;;;;;16.53;57.86;96613.03;10376258;28;96847;-75
2022/07/06 06:33:52;;;;;;;1.90;1.00;;;;;;;16.74;57.93;96616.84;10376717;28;96846;-75
2022/07/06 06:38:55;;;;;;;1.85;0.85;;;;;;;16.86;57.02;96626.00;10375573;28;96790;-75
2022/07/06 06:44:00;;;;;;;1.48;0.80;;;;;;;17.05;56.20;96619.41;10376122;28;98420;-75
2022/07/06 06:49:03;;;;;;;2.45;1.00;;;;;;;17.27;55.87;96625.66;10376813;28;97745;-75
2022/07/06 06:54:06;;;;;;;3.60;1.00;;;;;;;17.48;55.44;96638.13;10376106;28;96788;-75
2022/07/06 06:59:10;;;;;;;3.25;1.20;;;;;;;17.62;55.75;96638.34;10374440;28;96764;-75
2022/07/06 07:04:19;;;;;;;4.55;1.30;;;;;;;17.84;55.71;96637.44;10373791;28;97704;-76
2022/07/06 07:09:22;;;;;;;2.67;0.90;;;;;;;18.10;54.34;96617.63;10374998;28;98708;-76
2022/07/06 07:14:27;;;;;;;2.58;0.90;;;;;;;18.33;54.02;96632.53;10375001;28;98115;-75
2022/07/06 07:19:30;;;;;;;2.15;0.80;;;;;;;18.46;53.45;96628.22;10374715;28;96734;-76
2022/07/06 07:24:33;;;;;;;3.50;0.98;;;;;;;18.67;52.65;96630.03;10374773;28;96729;-75
2022/07/06 07:29:37;;;;;;;2.35;0.90;;;;;;;18.84;51.92;96624.47;10374918;28;96870;-75
2022/07/06 07:34:40;;;;;;;1.95;1.13;;;;;;;18.96;52.30;96622.16;10376562;28;96827;-76
2022/07/06 07:39:43;;;;;;;3.45;1.20;;;;;;;19.11;52.18;96622.91;10374844;28;97091;-76
2022/07/06 07:44:47;;;;;;;1.60;1.00;;;;;;;19.27;51.39;96623.63;10374168;28;96759;-76
2022/07/06 07:49:50;;;;;;;1.63;0.90;;;;;;;19.39;51.55;96617.59;10374079;28;96734;-75
2022/07/06 07:54:53;;;;;;;3.38;0.98;;;;;;;19.62;51.36;96611.19;10373015;28;96853;-76
2022/07/06 08:00:18;;;;;;;2.25;1.17;;;;;;;19.74;50.73;96624.72;10373038;28;96801;-76
2022/07/06 08:05:28;;;;;;;3.15;1.05;;;;;;;19.87;50.45;96619.53;10365588;28;96709;-76
2022/07/06 08:10:32;;;;;;;1.85;1.00;;;;;;;19.99;49.82;96623.25;10373294;28;96921;-76
2022/07/06 08:15:44;;;;;;;4.32;1.25;;;;;;;20.08;49.44;96621.25;10329507;28;97000;-76
2022/07/06 08:20:47;;;;;;;;;;;;;;;20.25;49.73;96621.72;10329433;28;96745;-76
2022/07/06 08:26:10;;;;;;;1.73;1.00;;;;;;;20.34;48.82;96615.22;10331767;28;96918;-76
2022/07/06 08:31:20;;;;;;;2.05;1.08;;;;;;;20.47;48.50;96616.25;10332064;28;96889;-76
2022/07/06 08:36:43;;;;;;;6.18;1.25;;;;;;;20.58;48.23;96610.34;10331739;28;96810;-76
2022/07/06 08:41:48;;;;;;;3.25;1.02;;;;;;;20.74;48.00;96603.88;10331020;28;96887;-75
2022/07/06 08:46:55;;;;;;;1.85;1.00;;;;;;;20.87;47.56;96603.06;10329773;28;96867;-75
2022/07/06 08:51:58;;;;;;;1.85;1.10;;;;;;;20.92;47.51;96605.94;10318172;28;98963;-76
2022/07/06 08:57:03;;;;;;;3.15;1.38;;;;;;;21.07;47.10;96608.41;10330558;28;96823;-76
2022/07/06 09:02:08;;;;;;;2.85;1.08;;;;;;;21.31;46.87;96613.06;10321190;28;96827;-75
2022/07/06 09:07:11;;;;;;;2.75;1.13;;;;;;;21.43;46.57;96612.41;10323956;28;96763;-76
2022/07/06 09:12:21;;;;;;;2.60;0.90;;;;;;;21.56;45.90;96609.75;10335829;28;96818;-76
2022/07/06 09:17:29;;;;;;;3.90;1.20;;;;;;;21.69;45.16;96614.22;10351115;28;96814;-76
2022/07/06 09:22:33;;;;;;;1.33;0.82;;;;;;;21.80;44.89;96623.44;10361586;28;96824;-75
2022/07/06 09:27:39;;;;;;;1.13;0.90;;;;;;;21.99;43.99;96605.78;10378540;28;96873;-75
2022/07/06 09:32:45;;;;;;;2.20;1.00;;;;;;;22.12;42.82;96608.34;10366954;28;96747;-75
2022/07/06 09:38:01;;;;;;;2.55;0.98;;;;;;;22.09;42.66;96616.75;10367695;28;96857;-76
2022/07/06 09:43:15;;;;;;;1.63;1.00;;;;;;;22.15;42.62;96615.91;10377949;28;96879;-76
2022/07/06 09:48:21;;;;;;;1.92;1.10;;;;;;;22.25;42.85;96605.63;10364713;28;96824;-77
2022/07/06 09:53:27;;;;;;;2.83;1.13;;;;;;;22.35;42.22;96607.00;10376631;28;96889;-77
2022/07/06 09:58:29;;;;;;;4.82;1.15;;;;;;;22.45;41.96;96605.50;10376332;28;97194;-77
2022/07/06 10:03:54;;;;;;;2.13;1.10;;;;;;;22.63;42.01;96607.50;10378467;28;96798;-76
2022/07/06 10:08:59;;;;;;;3.20;1.10;;;;;;;22.78;41.44;96609.03;10377654;28;96828;-77
2022/07/06 10:14:04;;;;;;;3.88;0.95;;;;;;;22.96;40.85;96605.59;10368807;28;96880;-77
2022/07/06 10:19:10;;;;;;;3.17;1.20;;;;;;;23.03;40.39;96609.06;10373172;28;96765;-76
2022/07/06 10:24:14;;;;;;;2.22;1.25;;;;;;;23.02;41.30;96609.28;10376304;28;96792;-76
2022/07/06 10:29:17;;;;;;;4.03;0.88;;;;;;;23.25;41.58;96604.13;10375713;28;96841;-77
2022/07/06 10:34:21;;;;;;;2.05;0.85;;;;;;;23.37;41.04;96605.06;10374586;28;97146;-77
2022/07/06 10:44:55;;;;;;;2.05;1.00;;;;;;;23.65;40.38;96598.44;10376196;28;97426;-77
2022/07/06 10:50:02;;;;;;;3.53;1.17;;;;;;;23.78;40.35;96596.69;10375789;28;96873;-77
2022/07/06 10:55:05;;;;;;;1.92;1.05;;;;;;;23.97;39.79;96589.47;10375774;28;96848;-76
2022/07/06 11:00:14;;;;;;;2.22;1.08;;;;;;;24.21;39.52;96582.41;10375667;28;96861;-77
2022/07/06 11:05:41;;;;;;;1.60;1.05;;;;;;;24.34;39.57;96584.91;10378583;28;96859;-77
2022/07/06 11:11:12;;;;;;;3.30;1.20;;;;;;;24.48;39.66;96583.66;10369724;28;98596;-76
2022/07/06 11:16:16;;;;;;;2.95;1.10;;;;;;;24.47;39.32;96578.56;10374922;28;96825;-77
2022/07/06 11:21:22;;;;;;;2.08;1.05;;;;;;;24.67;39.27;96570.25;10373615;28;96790;-77
2022/07/06 11:26:25;;;;;;;2.88;1.20;;;;;;;24.86;38.60;96573.69;10361592;28;97028;-77
2022/07/06 11:31:28;;;;;;;3.13;1.17;;;;;;;25.06;39.06;96565.34;10364824;28;96746;-77
2022/07/06 11:36:33;;;;;;;3.83;1.30;;;;;;;25.25;38.97;96564.19;10372645;28;96778;-77
2022/07/06 11:41:40;;;;;;;3.08;1.10;;;;;;;25.30;38.48;96571.50;10374090;28;96880;-77
2022/07/06 11:46:50;;;;;;;5.18;1.20;;;;;;;25.59;38.22;96553.72;10379445;28;96885;-77
2022/07/06 11:51:55;;;;;;;2.63;1.10;;;;;;;25.82;37.68;96546.69;10374270;28;96824;-77
2022/07/06 11:56:59;;;;;;;2.45;1.10;;;;;;;26.08;37.07;96548.00;10374120;28;96907;-77
2022/07/06 12:02:04;;;;;;;1.65;1.08;;;;;;;26.03;37.42;96542.53;10373995;28;96839;-77
2022/07/06 12:07:11;;;;;;;2.30;1.00;;;;;;;26.11;37.63;96527.97;10372831;28;97135;-77
2022/07/06 12:12:16;;;;;;;3.17;1.23;;;;;;;26.21;36.73;96525.47;10365080;28;96849;-77
2022/07/06 12:17:19;;;;;;;2.42;1.00;;;;;;;26.48;36.57;96522.22;10373180;28;96753;-77
2022/07/06 12:22:27;;;;;;;4.13;1.00;;;;;;;26.70;36.61;96514.28;10373752;28;96981;-77
2022/07/06 12:27:35;;;;;;;1.02;0.90;;;;;;;26.91;36.21;96518.88;10372481;28;96796;-77
2022/07/06 12:32:38;;;;;;;3.47;1.23;;;;;;;27.10;36.25;96508.75;10372659;28;96785;-77
2022/07/06 12:37:55;;;;;;;4.13;1.10;;;;;;;27.34;35.65;96513.09;10372641;28;97095;-77
2022/07/06 12:42:58;;;;;;;2.08;0.90;;;;;;;27.60;35.26;96507.00;10372944;28;96730;-77
2022/07/06 12:48:03;;;;;;;2.57;1.40;;;;;;;27.41;35.40;96506.50;10362273;28;98669;-77
2022/07/06 12:53:24;;;;;;;1.65;1.00;;;;;;;27.59;34.98;96504.56;10360335;28;96778;-77
2022/07/06 12:58:28;;;;;;;5.43;1.30;;;;;;;27.64;34.84;96500.09;10377061;28;98629;-77
2022/07/06 13:03:40;;;;;;;2.47;1.00;;;;;;;28.17;34.61;96500.41;10378377;28;96741;-77
2022/07/06 13:08:44;;;;;;;1.88;1.10;;;;;;;28.64;33.81;96495.44;10379629;28;98824;-77
2022/07/06 13:13:47;;;;;;;4.40;1.15;;;;;;;28.99;33.92;96495.75;10378595;28;97113;-76
2022/07/06 13:18:50;;;;;;;1.70;1.13;;;;;;;29.06;32.88;96487.47;10378602;28;97131;-77
2022/07/06 13:23:55;;;;;;;1.02;0.95;;;;;;;29.44;32.36;96479.31;10379006;28;96866;-77
2022/07/06 13:28:59;;;;;;;2.40;1.10;;;;;;;29.92;31.75;96488.13;10380750;28;96798;-77
2022/07/06 13:34:02;;;;;;;1.65;1.20;;;;;;;29.84;31.64;96481.38;10374750;28;98004;-77
2022/07/06 13:39:06;;;;;;;1.27;1.00;;;;;;;29.32;32.27;96474.16;10382077;28;96886;-77
2022/07/06 13:44:11;;;;;;;1.45;0.93;;;;;;;29.01;32.75;96487.44;10374309;28;97122;-77
2022/07/06 13:49:17;;;;;;;3.25;1.15;;;;;;;28.41;33.09;96483.97;10370144;28;97734;-77
2022/07/06 13:54:21;;;;;;;1.52;1.20;;;;;;;28.52;33.19;96468.78;10376854;28;96859;-77
2022/07/06 13:59:24;;;;;;;3.63;1.13;;;;;;;28.75;32.96;96472.97;10371258;28;96831;-77
2022/07/06 14:04:27;;;;;;;;;;;;;;;28.64;33.45;96464.03;10378308;28;96877;-77
2022/07/06 14:09:31;;;;;;;4.55;1.05;;;;;;;28.30;33.04;96463.47;10372451;28;96757;-78
2022/07/06 14:14:34;;;;;;;1.65;0.88;;;;;;;30.50;30.71;96457.53;10377383;28;96846;-78
2022/07/06 14:19:37;;;;;;;4.07;1.55;;;;;;;32.62;28.16;96456.44;10377722;28;96864;-78
2022/07/06 14:24:41;;;;;;;1.20;1.00;;;;;;;32.96;28.43;96455.56;10375832;28;98640;-78
2022/07/06 14:29:44;;;;;;;3.28;1.13;;;;;;;33.18;27.56;96455.09;10377103;28;98097;-78
2022/07/06 14:34:47;;;;;;;1.88;0.90;;;;;;;33.74;26.37;96450.91;10376860;28;96754;-78
2022/07/06 14:39:51;;;;;;;2.47;0.98;;;;;;;34.12;25.75;96445.50;10376101;28;96781;-78
2022/07/06 14:44:54;;;;;;;2.65;0.95;;;;;;;32.58;27.19;96455.38;10375176;28;96795;-78
2022/07/06 14:49:57;;;;;;;1.00;0.90;;;;;;;30.27;29.83;96447.00;10366659;28;96821;-78
2022/07/06 14:55:01;;;;;;;1.42;1.00;;;;;;;29.08;31.32;96452.25;10376402;28;96802;-78
2022/07/06 15:00:05;;;;;;;2.15;1.02;;;;;;;31.46;29.39;96444.16;10375910;28;96770;-78
2022/07/06 15:05:09;;;;;;;1.20;0.93;;;;;;;33.70;26.18;96449.91;10375554;28;96834;-78
2022/07/06 15:10:13;;;;;;;1.77;1.08;;;;;;;34.87;24.53;96452.75;10374815;28;97050;-78
2022/07/06 15:15:16;;;;;;;1.58;1.00;;;;;;;35.31;24.13;96439.72;10340024;28;96828;-79
2022/07/06 15:20:40;;;;;;;1.30;0.90;;;;;;;34.75;23.93;96436.16;10339200;28;98008;-78
2022/07/06 15:25:45;;;;;;;3.78;1.10;;;;;;;35.36;23.76;96436.09;10315278;28;96939;-78
2022/07/06 15:30:57;;;;;;;1.83;0.80;;;;;;;36.35;23.54;96442.66;10335175;28;96965;-79
2022/07/06 15:35:59;;;;;;;3.55;1.20;;;;;;;37.16;22.39;96436.25;10331420;28;97178;-79
2022/07/06 15:41:04;;;;;;;1.85;0.88;;;;;;;37.27;22.21;96439.53;10331024;28;97060;-79
2022/07/06 15:46:07;;;;;;;2.15;0.68;;;;;;;38.52;20.76;96440.97;10332325;28;97183;-78
2022/07/06 15:51:10;;;;;;;1.67;0.88;;;;;;;38.12;21.37;96436.47;10331164;28;96741;-78
2022/07/06 15:56:15;;;;;;;2.83;0.98;;;;;;;38.79;21.09;96439.00;10338511;28;96734;-80
2022/07/06 16:01:18;;;;;;;3.17;0.85;;;;;;;37.63;21.41;96418.59;10320018;28;96789;-80
2022/07/06 16:06:22;;;;;;;1.70;0.95;;;;;;;37.10;22.54;96414.91;10331947;28;96779;-80
2022/07/06 16:11:26;;;;;;;2.42;1.05;;;;;;;35.45;23.86;96420.72;10335851;28;97619;-79
2022/07/06 16:16:29;;;;;;;1.42;1.05;;;;;;;35.76;23.96;96423.59;10372752;28;96810;-79
2022/07/06 16:21:32;;;;;;;2.55;1.23;;;;;;;36.37;23.21;96420.59;10373228;28;97278;-80
2022/07/06 16:26:37;;;;;;;4.05;1.17;;;;;;;36.22;22.45;96405.44;10371633;28;96813;-80
2022/07/06 16:31:39;;;;;;;2.38;1.20;;;;;;;36.27;22.86;96416.19;10373195;28;96888;-80
2022/07/06 16:36:42;;;;;;;1.60;1.00;;;;;;;36.49;23.40;96401.00;10376300;28;97914;-80
2022/07/06 16:41:48;;;;;;;1.38;0.90;;;;;;;37.12;22.55;96397.13;10381868;28;97120;-80
2022/07/06 16:46:56;;;;;;;2.20;0.90;;;;;;;37.29;22.44;96401.88;10372216;28;96792;-80
2022/07/06 16:51:59;;;;;;;1.48;0.90;;;;;;;35.99;23.29;96393.72;10372370;28;98876;-80
2022/07/06 16:57:04;;;;;;;2.58;1.10;;;;;;;35.39;24.10;96397.47;10372458;28;97143;-80
2022/07/06 17:02:07;;;;;;;2.13;1.15;;;;;;;34.82;24.32;96395.84;10370373;28;96884;-80
2022/07/06 17:07:10;;;;;;;1.70;1.05;;;;;;;35.56;23.64;96394.91;10370307;28;97518;-80
2022/07/06 17:12:15;;;;;;;2.33;0.95;;;;;;;35.02;24.16;96393.84;10365315;28;96896;-79
2022/07/06 17:17:18;;;;;;;2.75;0.90;;;;;;;34.96;24.46;96388.50;10328537;28;96963;-77
2022/07/06 17:22:21;;;;;;;2.65;1.10;;;;;;;35.17;23.87;96390.81;10328765;28;97000;-79
2022/07/06 17:27:25;;;;;;;3.03;0.98;;;;;;;34.47;24.63;96403.50;10329694;28;97038;-80
2022/07/06 17:32:28;;;;;;;2.08;1.10;;;;;;;33.96;25.09;96407.00;10330088;28;96866;-80
2022/07/06 17:37:31;;;;;;;1.92;0.93;;;;;;;34.07;25.19;96397.59;10329537;28;96902;-80
2022/07/06 17:42:35;;;;;;;1.48;0.98;;;;;;;32.93;25.94;96405.53;10331354;28;96838;-79
2022/07/06 17:47:38;;;;;;;1.27;0.90;;;;;;;31.74;27.30;96404.84;10336627;28;97711;-79
2022/07/06 17:52:41;;;;;;;2.85;1.30;;;;;;;29.92;29.26;96399.25;10337124;28;96828;-79
2022/07/06 17:57:45;;;;;;;3.45;1.10;;;;;;;28.58;30.88;96412.09;10328806;28;97713;-79
2022/07/06 18:02:48;;;;;;;1.67;1.10;;;;;;;27.26;32.64;96425.81;10336186;28;97058;-79
2022/07/06 18:07:51;;;;;;;1.77;0.90;;;;;;;26.40;34.02;96412.78;10335126;28;96850;-78
2022/07/06 18:12:55;;;;;;;1.87;1.00;;;;;;;25.74;34.75;96413.28;10348655;28;96794;-78
2022/07/06 18:17:58;;;;;;;4.00;1.20;;;;;;;25.01;36.58;96407.56;10360971;28;96868;-78
2022/07/06 18:23:06;;;;;;;4.95;1.20;;;;;;;24.65;37.35;96420.09;10341139;28;96759;-78
2022/07/06 18:28:12;;;;;;;3.40;1.20;;;;;;;24.35;37.97;96421.03;10338964;28;96885;-78
2022/07/06 18:33:15;;;;;;;3.85;1.30;;;;;;;23.94;38.82;96414.63;10326170;28;97205;-78
2022/07/06 18:38:18;;;;;;;3.57;1.30;;;;;;;23.99;38.45;96421.97;10318942;28;96779;-78
2022/07/06 18:43:22;;;;;;;3.03;1.10;;;;;;;24.02;38.80;96419.66;10319231;28;98679;-78
2022/07/06 18:48:25;;;;;;;1.88;1.08;;;;;;;23.77;39.39;96421.66;10338639;28;98274;-77
2022/07/06 18:53:28;;;;;;;1.50;1.10;;;;;;;23.71;38.96;96426.84;10334252;28;97236;-77
2022/07/06 18:58:33;;;;;;;2.72;1.17;;;;;;;23.63;39.79;96429.84;10330526;28;97083;-77
2022/07/06 19:03:36;;;;;;;2.92;1.10;;;;;;;23.36;40.20;96438.19;10321855;28;98083;-78
2022/07/06 19:08:39;;;;;;;1.35;0.90;;;;;;;23.14;40.58;96437.78;10312776;28;96879;-77
2022/07/06 19:13:43;;;;;;;2.03;1.20;;;;;;;22.99;40.72;96445.31;10343194;28;97095;-77
2022/07/06 19:18:46;;;;;;;1.63;1.25;;;;;;;22.71;41.49;96443.97;10366387;28;96806;-77
2022/07/06 19:23:49;;;;;;;2.83;1.20;;;;;;;22.55;41.62;96445.34;10341019;28;96842;-77
2022/07/06 19:28:53;;;;;;;2.88;1.20;;;;;;;22.54;41.22;96454.34;10328518;28;97082;-78
2022/07/06 19:33:56;;;;;;;4.35;1.17;;;;;;;22.34;41.85;96459.81;10327507;28;96810;-77
2022/07/06 19:39:01;;;;;;;3.88;2.20;;;;;;;22.23;41.45;96463.16;10316163;28;96855;-77
2022/07/06 19:44:05;;;;;;;3.28;1.60;;;;;;;22.16;41.44;96459.75;10309422;28;97103;-77
2022/07/06 19:49:08;;;;;;;3.05;1.40;;;;;;;22.07;41.81;96475.16;10349053;28;97377;-77
2022/07/06 19:54:11;;;;;;;2.80;1.40;;;;;;;21.98;42.38;96484.44;10346220;28;96858;-77
2022/07/06 19:59:15;;;;;;;3.40;1.40;;;;;;;21.85;42.32;96488.78;10336298;28;96785;-77
2022/07/06 20:04:18;;;;;;;2.72;1.60;;;;;;;21.73;42.81;96487.84;10311675;28;98044;-77
2022/07/06 20:09:21;;;;;;;1.98;1.30;;;;;;;21.65;43.28;96509.34;10334735;28;97361;-76
2022/07/06 20:14:26;;;;;;;2.65;1.42;;;;;;;21.47;43.52;96502.03;10347896;28;98653;-73
2022/07/06 20:19:31;;;;;;;;;;;;;;;21.35;43.10;96498.41;10373661;28;96953;-72
2022/07/06 20:24:34;;;;;;;2.13;1.30;;;;;;;21.22;43.63;96515.16;10371946;28;98592;-72
2022/07/06 20:36:03;;;;;;;3.72;1.15;;;;;;;20.94;44.34;96525.00;10336426;28;96802;-72
2022/07/06 20:41:06;;;;;;;1.33;1.10;;;;;;;20.87;44.01;96534.03;10321849;28;96837;-72
2022/07/06 20:46:09;;;;;;;4.43;1.58;;;;;;;20.79;44.44;96531.56;10325532;28;97335;-70
2022/07/06 20:51:13;;;;;;;2.22;1.20;;;;;;;20.69;44.74;96537.28;10322976;28;96881;-70
2022/07/06 20:56:16;;;;;;;3.53;1.40;;;;;;;20.61;45.11;96546.25;10334249;28;96866;-69
2022/07/06 21:01:19;;;;;;;2.85;1.20;;;;;;;20.45;45.35;96551.97;10329698;28;96847;-70
2022/07/06 21:06:24;;;;;;;3.58;1.40;;;;;;;20.34;46.11;96556.03;10326580;28;96859;-69
2022/07/06 21:11:26;;;;;;;3.15;1.20;;;;;;;20.15;46.47;96554.97;10327226;28;99267;-71
2022/07/06 21:16:29;;;;;;;2.55;1.20;;;;;;;19.97;46.74;96550.22;10289463;28;96742;-70
2022/07/06 21:21:34;;;;;;;2.78;1.27;;;;;;;19.74;47.95;96561.13;10281315;28;96882;-70
2022/07/06 21:26:37;;;;;;;5.38;1.90;;;;;;;19.43;48.34;96565.84;10295204;28;96724;-70
2022/07/06 21:31:44;;;;;;;3.25;1.60;;;;;;;19.17;49.30;96582.41;10283464;28;98543;-71
2022/07/06 21:36:48;;;;;;;3.05;1.08;;;;;;;19.06;49.18;96585.59;10287564;28;99095;-69
2022/07/06 21:41:51;;;;;;;3.47;1.20;;;;;;;18.91;49.44;96582.22;10286911;28;96874;-69
2022/07/06 21:46:54;;;;;;;3.42;1.60;;;;;;;18.70;50.18;96568.78;10295930;28;97607;-69
2022/07/06 21:51:58;;;;;;;3.88;1.58;;;;;;;18.70;49.94;96571.41;10286358;28;97973;-70
2022/07/06 21:57:01;;;;;;;5.63;2.10;;;;;;;18.67;50.06;96570.97;10283521;28;98016;-69
2022/07/06 22:02:06;;;;;;;2.72;1.50;;;;;;;18.44;50.71;96587.88;10288790;28;99223;-69
2022/07/06 22:07:10;;;;;;;3.22;1.40;;;;;;;18.22;50.85;96578.28;10289767;28;96797;-69
2022/07/06 22:12:13;;;;;;;4.57;1.85;;;;;;;17.97;52.26;96578.63;10292047;28;96917;-69
2022/07/06 22:17:16;;;;;;;3.05;1.52;;;;;;;17.90;52.28;96577.75;10292998;28;96840;-69
2022/07/06 22:22:21;;;;;;;2.28;1.45;;;;;;;17.81;52.27;96568.25;10285988;28;98619;-70
2022/07/06 22:27:24;;;;;;;4.03;1.58;;;;;;;17.64;52.52;96576.38;10294601;28;98334;-69
2022/07/06 22:32:27;;;;;;;5.10;1.83;;;;;;;17.45;53.21;96582.22;10283975;28;98894;-69
2022/07/06 22:37:31;;;;;;;7.32;2.17;;;;;;;17.25;54.30;96582.78;10293820;28;98983;-69
2022/07/06 22:42:34;;;;;;;2.75;1.80;;;;;;;17.07;54.11;96584.91;10293162;28;99202;-69
2022/07/06 22:47:37;;;;;;;4.70;1.80;;;;;;;16.87;54.96;96574.88;10283970;28;98647;-70
2022/07/06 22:52:41;;;;;;;3.67;2.00;;;;;;;16.86;55.29;96583.78;10284882;28;97686;-69
2022/07/06 22:57:44;;;;;;;4.28;1.80;;;;;;;16.81;55.05;96578.22;10291414;28;99026;-69
2022/07/06 23:02:47;;;;;;;5.18;2.28;;;;;;;16.76;55.70;96578.78;10299972;28;96733;-69
2022/07/06 23:07:51;;;;;;;3.90;1.88;;;;;;;16.63;56.33;96583.78;10292557;28;96895;-69
2022/07/06 23:12:55;;;;;;;2.75;1.70;;;;;;;16.44;56.88;96595.63;10311242;28;96923;-69
2022/07/06 23:17:58;;;;;;;3.15;1.60;;;;;;;16.29;57.79;96589.47;10324959;28;98334;-69
2022/07/06 23:23:02;;;;;;;3.60;1.58;;;;;;;16.10;57.85;96583.66;10330083;28;98666;-69
2022/07/06 23:28:06;;;;;;;2.75;1.83;;;;;;;16.02;58.08;96587.16;10333531;28;97802;-69
2022/07/06 23:33:09;;;;;;;3.33;1.60;;;;;;;15.92;58.96;96580.47;10331578;28;98517;-69
2022/07/06 23:38:14;;;;;;;4.07;1.58;;;;;;;15.74;59.47;96584.19;10331069;28;97597;-69
2022/07/06 23:43:17;;;;;;;;;;;;;;;15.58;59.04;96592.09;10332225;28;96782;-69
2022/07/06 23:48:20;;;;;;;3.38;1.60;;;;;;;15.31;60.27;96586.28;10332855;28;97593;-69
2022/07/06 23:53:24;;;;;;;3.50;2.00;;;;;;;15.19;60.22;96585.00;10330016;28;98974;-69
2022/07/06 23:58:28;;;;;;;3.15;1.65;;;;;;;15.04;60.41;96582.22;10332734;28;97651;-69
